ENNAEFOU

Guest
Details From ENNA - BANAK
To EFOU - Oulu
Flight Number -
Tags decoded
Created
Modified
Stats Distance 414 nm / 766 km
Max Altitude 0 ft / 0 m
Waypoints 5
Social Downloads 0
Likes 0
Share VATSIM

Download

Looking for another format? Having issues loading an existing format? Contact us
Advertisement - Login to hide

Notes

Requested: ENNA ABANU M609 KIK M745 SIVNU T400 NEKUX M857 UPEDU EFOU Unmatched points: M609 T400 NEKUX M857 UPEDU

Route

ENNA ABANU KIK M745 SIVNU EFOU

ID Type Via Altitude Latitude Longitude Leg Dist Tot Dist Heading (true) Name
O ENNA APT - 0 ft / 0 m 70.06881˚ 24.97349˚ - 0 nm - BANAK
ABANU FIX - 0 ft / 0 m 70.13333˚ 26.00000˚ 21 nm 21 nm 79° / 80° -
KIK VOR - 0 ft / 0 m 69.72379˚ 29.86911˚ 83 nm 104 nm 105° / 109° KIRKENES VOR-DME
SIVNU FIX M745 (AWY-LO) 0 ft / 0 m 69.57444˚ 29.23778˚ 15 nm 120 nm 236° / 235° -
O EFOU APT - 0 ft / 0 m 64.93006˚ 25.35456˚ 293 nm 413 nm 200° / 196° Oulu

Altitude Profile

Advertisement - Login to hide

Weather


0- 5 10 15 20 25 30 35+ Temperature / ° C

Clouds and Precipitation
Forecast for 2017-12-17 12:00 UTC. Updated an hour ago

Ground ~20,000 ft ~40,000 ft Winds

ENNA

Details ICAO ENNA (LKL)
Name BANAK
Region Norway
Timezone Unknown (UTC+0.0)
Stats Elevation 25 ft / 8 m (AMSL)
Location 70.068813° 24.973489°
Runways 1
Magnetic Variation 12.392° E

METAR

ENNA 171220Z 18016KT 4000 -SN BKN032 M10/M13 Q0997 RMK WIND 1800FT 28013KT

Decode

TAF

TAF AMD ENNA 171206Z 1712/1812 18015KT 9999 FEW015 SCT030 TEMPO 1712/1715 4000 -SHSN BKN014 TEMPO 1721/1812 18005KT

Decode

Departure Runways

ID Width Length Bearing (true) Bearing (mag) Surface Threshold Offset Overrun Length
17 148 ft / 45 m 9,104 ft / 2,775 m 175.43° 163.04° Asphalt 302 ft / 92 m 0 ft / 0 m
35 148 ft / 45 m 9,104 ft / 2,775 m 355.44° 343.05° Asphalt 302 ft / 92 m 0 ft / 0 m

EFOU

Details ICAO EFOU (OUL)
Name Oulu
Region Finland
Timezone Europe/Helsinki (UTC+2.0)
Stats Elevation 47 ft / 14 m (AMSL)
Location 64.930059° 25.354560°
Runways 1
Magnetic Variation 10.663° E

METAR

EFOU 171220Z AUTO 19007KT 9999 -SN BKN009 OVC012 M03/M03 Q1003

Decode

TAF

TAF AMD TAF AMD EFOU 171157Z 1712/1812 20005KT 9999 OVC015 TEMPO 1712/1806 BKN005 PROB30 1712/1718 -FZDZ TEMPO 1806/1812 BKN010

Decode

Destination Runways

ID Width Length Bearing (true) Bearing (mag) Surface Threshold Offset Overrun Length
12 197 ft / 60 m 8,180 ft / 2,493 m 121.01° 110.35° Asphalt 0 ft / 0 m 200 ft / 61 m
30 197 ft / 60 m 8,180 ft / 2,493 m 301.05° 290.39° Asphalt 0 ft / 0 m 200 ft / 61 m

Approach Navaids

Runway Type Ident Frequency Range Bearing (true) Bearing (mag) Slope Elevation
12 Localiser OU 109.50 MHz 18 nm / 33 km 121.06° 110.39° - 47 ft / 14 m (AMSL)
12 Glidescope OU 109.50 MHz 10 nm / 19 km 121.03° 110.37° 3.00° 47 ft / 14 m (AMSL)
12 DME OU 109.50 MHz 18 nm / 33 km - - - 100 ft / 30 m (AMSL)

Popular Alternatives